sensor_id;sensor_type;location;lat;lon;timestamp;temperature;humidity
14188;DHT22;7175;51.978;5.330;2023-05-10T00:00:46;13.50;99.90
14188;DHT22;7175;51.978;5.330;2023-05-10T00:03:14;13.50;99.90
14188;DHT22;7175;51.978;5.330;2023-05-10T00:05:42;13.50;99.90
14188;DHT22;7175;51.978;5.330;2023-05-10T00:08:10;13.50;99.90
14188;DHT22;7175;51.978;5.330;2023-05-10T00:10:39;13.50;99.90
14188;DHT22;7175;51.978;5.330;2023-05-10T00:13:09;13.50;99.90
14188;DHT22;7175;51.978;5.330;2023-05-10T00:15:37;13.40;99.90
14188;DHT22;7175;51.978;5.330;2023-05-10T00:18:05;13.40;99.90
14188;DHT22;7175;51.978;5.330;2023-05-10T00:20:33;13.40;99.90
14188;DHT22;7175;51.978;5.330;2023-05-10T00:23:01;13.50;99.90
14188;DHT22;7175;51.978;5.330;2023-05-10T00:25:29;13.40;99.90
14188;DHT22;7175;51.978;5.330;2023-05-10T00:27:57;13.40;99.90
14188;DHT22;7175;51.978;5.330;2023-05-10T00:30:29;13.40;99.90
14188;DHT22;7175;51.978;5.330;2023-05-10T00:32:57;13.50;99.90
14188;DHT22;7175;51.978;5.330;2023-05-10T00:35:25;13.50;99.90
14188;DHT22;7175;51.978;5.330;2023-05-10T00:37:54;13.40;99.90
14188;DHT22;7175;51.978;5.330;2023-05-10T00:40:22;13.40;99.90
14188;DHT22;7175;51.978;5.330;2023-05-10T00:42:50;13.40;99.90
14188;DHT22;7175;51.978;5.330;2023-05-10T00:45:18;13.40;99.90
14188;DHT22;7175;51.978;5.330;2023-05-10T00:47:48;13.40;99.90
14188;DHT22;7175;51.978;5.330;2023-05-10T00:50:16;13.40;99.90
14188;DHT22;7175;51.978;5.330;2023-05-10T00:52:44;13.40;99.90
14188;DHT22;7175;51.978;5.330;2023-05-10T00:55:12;13.50;99.90
14188;DHT22;7175;51.978;5.330;2023-05-10T00:57:41;13.40;99.90
14188;DHT22;7175;51.978;5.330;2023-05-10T01:00:11;13.40;99.90
14188;DHT22;7175;51.978;5.330;2023-05-10T01:02:40;13.40;99.90
14188;DHT22;7175;51.978;5.330;2023-05-10T01:05:10;13.40;99.90
14188;DHT22;7175;51.978;5.330;2023-05-10T01:07:39;13.40;99.90
14188;DHT22;7175;51.978;5.330;2023-05-10T01:10:09;13.40;99.90
14188;DHT22;7175;51.978;5.330;2023-05-10T01:12:40;13.50;99.90
14188;DHT22;7175;51.978;5.330;2023-05-10T01:15:09;13.40;99.90
14188;DHT22;7175;51.978;5.330;2023-05-10T01:17:40;13.40;99.90
14188;DHT22;7175;51.978;5.330;2023-05-10T01:20:12;13.40;99.90
14188;DHT22;7175;51.978;5.330;2023-05-10T01:23:04;13.50;99.90
14188;DHT22;7175;51.978;5.330;2023-05-10T01:26:07;13.50;99.90
14188;DHT22;7175;51.978;5.330;2023-05-10T01:28:58;13.60;99.90
14188;DHT22;7175;51.978;5.330;2023-05-10T01:31:59;13.50;99.90
14188;DHT22;7175;51.978;5.330;2023-05-10T01:34:35;13.60;99.90
14188;DHT22;7175;51.978;5.330;2023-05-10T01:37:07;13.50;99.90
14188;DHT22;7175;51.978;5.330;2023-05-10T01:39:40;13.60;99.90
14188;DHT22;7175;51.978;5.330;2023-05-10T01:42:16;13.60;99.90
14188;DHT22;7175;51.978;5.330;2023-05-10T01:44:52;13.60;99.90
14188;DHT22;7175;51.978;5.330;2023-05-10T01:47:31;13.60;99.90
14188;DHT22;7175;51.978;5.330;2023-05-10T01:50:03;13.50;99.90
14188;DHT22;7175;51.978;5.330;2023-05-10T01:52:37;13.50;99.90
14188;DHT22;7175;51.978;5.330;2023-05-10T01:55:09;13.50;99.90
14188;DHT22;7175;51.978;5.330;2023-05-10T01:57:38;13.50;99.90
14188;DHT22;7175;51.978;5.330;2023-05-10T02:00:08;13.50;99.90
14188;DHT22;7175;51.978;5.330;2023-05-10T02:02:40;13.60;99.90
14188;DHT22;7175;51.978;5.330;2023-05-10T02:05:09;13.60;99.90
14188;DHT22;7175;51.978;5.330;2023-05-10T02:07:39;13.60;99.90
14188;DHT22;7175;51.978;5.330;2023-05-10T02:10:10;13.60;99.90
14188;DHT22;7175;51.978;5.330;2023-05-10T02:12:41;13.60;99.90
14188;DHT22;7175;51.978;5.330;2023-05-10T02:15:11;13.60;99.90
14188;DHT22;7175;51.978;5.330;2023-05-10T02:17:42;13.60;99.90
14188;DHT22;7175;51.978;5.330;2023-05-10T02:20:11;13.60;99.90
14188;DHT22;7175;51.978;5.330;2023-05-10T02:22:42;13.60;99.90
14188;DHT22;7175;51.978;5.330;2023-05-10T02:25:11;13.50;99.90
14188;DHT22;7175;51.978;5.330;2023-05-10T02:27:41;13.40;99.90
14188;DHT22;7175;51.978;5.330;2023-05-10T02:30:11;13.40;99.90
14188;DHT22;7175;51.978;5.330;2023-05-10T02:32:43;13.40;99.90
14188;DHT22;7175;51.978;5.330;2023-05-10T02:35:12;13.40;99.90
14188;DHT22;7175;51.978;5.330;2023-05-10T02:37:41;13.40;99.90
14188;DHT22;7175;51.978;5.330;2023-05-10T02:40:10;13.30;99.90
14188;DHT22;7175;51.978;5.330;2023-05-10T02:42:41;13.40;99.90
14188;DHT22;7175;51.978;5.330;2023-05-10T02:45:13;13.30;99.90
14188;DHT22;7175;51.978;5.330;2023-05-10T02:47:44;13.40;99.90
14188;DHT22;7175;51.978;5.330;2023-05-10T02:50:12;13.30;99.90
14188;DHT22;7175;51.978;5.330;2023-05-10T02:52:44;13.30;99.90
14188;DHT22;7175;51.978;5.330;2023-05-10T02:55:14;13.30;99.90
14188;DHT22;7175;51.978;5.330;2023-05-10T02:57:48;13.30;99.90
14188;DHT22;7175;51.978;5.330;2023-05-10T03:00:18;13.30;99.90
14188;DHT22;7175;51.978;5.330;2023-05-10T03:02:48;13.30;99.90
14188;DHT22;7175;51.978;5.330;2023-05-10T03:05:16;13.30;99.90
14188;DHT22;7175;51.978;5.330;2023-05-10T03:07:45;13.30;99.90
14188;DHT22;7175;51.978;5.330;2023-05-10T03:10:14;13.30;99.90
14188;DHT22;7175;51.978;5.330;2023-05-10T03:12:52;13.30;99.90
14188;DHT22;7175;51.978;5.330;2023-05-10T03:15:32;13.20;99.90
14188;DHT22;7175;51.978;5.330;2023-05-10T03:18:07;13.30;99.90
14188;DHT22;7175;51.978;5.330;2023-05-10T03:20:38;13.30;99.90
14188;DHT22;7175;51.978;5.330;2023-05-10T03:23:12;13.30;99.90
14188;DHT22;7175;51.978;5.330;2023-05-10T03:25:42;13.30;99.90
14188;DHT22;7175;51.978;5.330;2023-05-10T03:28:11;13.30;99.90
14188;DHT22;7175;51.978;5.330;2023-05-10T03:30:40;13.30;99.90
14188;DHT22;7175;51.978;5.330;2023-05-10T03:33:10;13.30;99.90
14188;DHT22;7175;51.978;5.330;2023-05-10T03:35:39;13.30;99.90
14188;DHT22;7175;51.978;5.330;2023-05-10T03:38:07;13.30;99.90
14188;DHT22;7175;51.978;5.330;2023-05-10T03:40:35;13.30;99.90
14188;DHT22;7175;51.978;5.330;2023-05-10T03:43:04;13.30;99.90
14188;DHT22;7175;51.978;5.330;2023-05-10T03:45:32;13.30;99.90
14188;DHT22;7175;51.978;5.330;2023-05-10T03:48:00;13.30;99.90
14188;DHT22;7175;51.978;5.330;2023-05-10T03:50:30;13.30;99.90
14188;DHT22;7175;51.978;5.330;2023-05-10T03:52:58;13.30;99.90
14188;DHT22;7175;51.978;5.330;2023-05-10T03:55:26;13.30;99.90
14188;DHT22;7175;51.978;5.330;2023-05-10T03:57:55;13.30;99.90
14188;DHT22;7175;51.978;5.330;2023-05-10T04:00:23;13.40;99.90
14188;DHT22;7175;51.978;5.330;2023-05-10T04:02:51;13.30;99.90
14188;DHT22;7175;51.978;5.330;2023-05-10T04:05:19;13.30;99.90
14188;DHT22;7175;51.978;5.330;2023-05-10T04:07:49;13.40;99.90
14188;DHT22;7175;51.978;5.330;2023-05-10T04:10:17;13.40;99.90
14188;DHT22;7175;51.978;5.330;2023-05-10T04:12:46;13.40;99.90
14188;DHT22;7175;51.978;5.330;2023-05-10T04:15:14;13.40;99.90
14188;DHT22;7175;51.978;5.330;2023-05-10T04:17:42;13.40;99.90
14188;DHT22;7175;51.978;5.330;2023-05-10T04:20:11;13.30;99.90
14188;DHT22;7175;51.978;5.330;2023-05-10T04:22:40;13.40;99.90
14188;DHT22;7175;51.978;5.330;2023-05-10T04:25:10;13.40;99.90
14188;DHT22;7175;51.978;5.330;2023-05-10T04:27:38;13.40;99.90
14188;DHT22;7175;51.978;5.330;2023-05-10T04:30:07;13.40;99.90
14188;DHT22;7175;51.978;5.330;2023-05-10T04:32:35;13.40;99.90
14188;DHT22;7175;51.978;5.330;2023-05-10T04:35:04;13.40;99.90
14188;DHT22;7175;51.978;5.330;2023-05-10T04:37:32;13.40;99.90
14188;DHT22;7175;51.978;5.330;2023-05-10T04:40:01;13.50;99.90
14188;DHT22;7175;51.978;5.330;2023-05-10T04:42:31;13.50;99.90
14188;DHT22;7175;51.978;5.330;2023-05-10T04:45:00;13.40;99.90
14188;DHT22;7175;51.978;5.330;2023-05-10T04:47:28;13.40;99.90
14188;DHT22;7175;51.978;5.330;2023-05-10T04:49:56;13.50;99.90
14188;DHT22;7175;51.978;5.330;2023-05-10T04:52:24;13.50;99.90
14188;DHT22;7175;51.978;5.330;2023-05-10T04:54:52;13.50;99.90
14188;DHT22;7175;51.978;5.330;2023-05-10T04:57:21;13.50;99.90
14188;DHT22;7175;51.978;5.330;2023-05-10T04:59:50;13.60;99.90
14188;DHT22;7175;51.978;5.330;2023-05-10T05:02:18;13.60;99.90
14188;DHT22;7175;51.978;5.330;2023-05-10T05:04:47;13.50;99.90
14188;DHT22;7175;51.978;5.330;2023-05-10T05:07:15;13.50;99.90
14188;DHT22;7175;51.978;5.330;2023-05-10T05:09:43;13.60;99.90
14188;DHT22;7175;51.978;5.330;2023-05-10T05:12:11;13.60;99.90
14188;DHT22;7175;51.978;5.330;2023-05-10T05:14:41;13.60;99.90
14188;DHT22;7175;51.978;5.330;2023-05-10T05:17:10;13.60;99.90
14188;DHT22;7175;51.978;5.330;2023-05-10T05:19:38;13.60;99.90
14188;DHT22;7175;51.978;5.330;2023-05-10T05:22:07;13.60;99.90
14188;DHT22;7175;51.978;5.330;2023-05-10T05:24:35;13.60;99.90
14188;DHT22;7175;51.978;5.330;2023-05-10T05:27:04;13.60;99.90
14188;DHT22;7175;51.978;5.330;2023-05-10T05:29:33;13.60;99.90
14188;DHT22;7175;51.978;5.330;2023-05-10T05:32:01;13.60;99.90
14188;DHT22;7175;51.978;5.330;2023-05-10T05:34:31;13.70;99.90
14188;DHT22;7175;51.978;5.330;2023-05-10T05:36:59;13.60;99.90
14188;DHT22;7175;51.978;5.330;2023-05-10T05:39:28;13.60;99.90
14188;DHT22;7175;51.978;5.330;2023-05-10T05:41:56;13.70;99.90
14188;DHT22;7175;51.978;5.330;2023-05-10T05:44:25;13.70;99.90
14188;DHT22;7175;51.978;5.330;2023-05-10T05:46:55;13.70;99.90
14188;DHT22;7175;51.978;5.330;2023-05-10T05:49:23;13.70;99.90
14188;DHT22;7175;51.978;5.330;2023-05-10T05:51:53;13.70;99.90
14188;DHT22;7175;51.978;5.330;2023-05-10T05:54:21;13.70;99.90
14188;DHT22;7175;51.978;5.330;2023-05-10T05:56:49;13.70;99.90
14188;DHT22;7175;51.978;5.330;2023-05-10T05:59:18;13.70;99.90
14188;DHT22;7175;51.978;5.330;2023-05-10T06:01:46;13.70;99.90
14188;DHT22;7175;51.978;5.330;2023-05-10T06:04:14;13.70;99.90
14188;DHT22;7175;51.978;5.330;2023-05-10T06:06:42;13.70;99.90
14188;DHT22;7175;51.978;5.330;2023-05-10T06:09:12;13.70;99.90
14188;DHT22;7175;51.978;5.330;2023-05-10T06:11:40;13.70;99.90
14188;DHT22;7175;51.978;5.330;2023-05-10T06:14:08;13.70;99.90
14188;DHT22;7175;51.978;5.330;2023-05-10T06:16:36;13.60;99.90
14188;DHT22;7175;51.978;5.330;2023-05-10T06:19:04;13.60;99.90
14188;DHT22;7175;51.978;5.330;2023-05-10T06:21:32;13.80;99.90
14188;DHT22;7175;51.978;5.330;2023-05-10T06:24:00;13.80;99.90
14188;DHT22;7175;51.978;5.330;2023-05-10T06:26:30;13.90;99.90
14188;DHT22;7175;51.978;5.330;2023-05-10T06:28:59;14.00;99.90
14188;DHT22;7175;51.978;5.330;2023-05-10T06:31:27;13.90;99.90
14188;DHT22;7175;51.978;5.330;2023-05-10T06:33:56;13.90;99.90
14188;DHT22;7175;51.978;5.330;2023-05-10T06:36:24;13.80;99.90
14188;DHT22;7175;51.978;5.330;2023-05-10T06:38:53;13.80;99.90
14188;DHT22;7175;51.978;5.330;2023-05-10T06:41:21;13.80;99.90
14188;DHT22;7175;51.978;5.330;2023-05-10T06:43:52;13.80;99.90
14188;DHT22;7175;51.978;5.330;2023-05-10T06:46:20;13.80;99.90
14188;DHT22;7175;51.978;5.330;2023-05-10T06:48:48;13.80;99.90
14188;DHT22;7175;51.978;5.330;2023-05-10T06:51:16;13.80;99.90
14188;DHT22;7175;51.978;5.330;2023-05-10T06:53:45;13.80;99.90
14188;DHT22;7175;51.978;5.330;2023-05-10T06:56:13;13.80;99.90
14188;DHT22;7175;51.978;5.330;2023-05-10T06:58:41;13.90;99.90
14188;DHT22;7175;51.978;5.330;2023-05-10T07:01:11;14.00;99.90
14188;DHT22;7175;51.978;5.330;2023-05-10T07:03:39;14.00;99.90
14188;DHT22;7175;51.978;5.330;2023-05-10T07:06:08;14.00;99.90
14188;DHT22;7175;51.978;5.330;2023-05-10T07:08:56;14.00;99.90
14188;DHT22;7175;51.978;5.330;2023-05-10T07:11:24;14.00;99.90
14188;DHT22;7175;51.978;5.330;2023-05-10T07:13:52;14.00;99.90
14188;DHT22;7175;51.978;5.330;2023-05-10T07:16:22;14.00;99.90
14188;DHT22;7175;51.978;5.330;2023-05-10T07:18:50;14.20;99.90
14188;DHT22;7175;51.978;5.330;2023-05-10T07:21:19;14.30;99.90
14188;DHT22;7175;51.978;5.330;2023-05-10T07:23:50;14.40;99.90
14188;DHT22;7175;51.978;5.330;2023-05-10T07:26:19;14.50;99.90
14188;DHT22;7175;51.978;5.330;2023-05-10T07:28:48;14.60;99.90
14188;DHT22;7175;51.978;5.330;2023-05-10T07:31:16;14.40;99.90
14188;DHT22;7175;51.978;5.330;2023-05-10T07:33:46;14.50;99.90
14188;DHT22;7175;51.978;5.330;2023-05-10T07:36:14;14.60;99.90
14188;DHT22;7175;51.978;5.330;2023-05-10T07:38:42;14.70;99.90
14188;DHT22;7175;51.978;5.330;2023-05-10T07:41:11;14.80;99.90
14188;DHT22;7175;51.978;5.330;2023-05-10T07:43:39;14.90;99.90
14188;DHT22;7175;51.978;5.330;2023-05-10T07:46:08;14.90;99.90
14188;DHT22;7175;51.978;5.330;2023-05-10T07:48:37;14.80;99.90
14188;DHT22;7175;51.978;5.330;2023-05-10T07:51:07;14.90;99.90
14188;DHT22;7175;51.978;5.330;2023-05-10T07:53:37;15.10;99.90
14188;DHT22;7175;51.978;5.330;2023-05-10T07:56:21;15.30;99.90
14188;DHT22;7175;51.978;5.330;2023-05-10T07:58:49;15.30;99.90
14188;DHT22;7175;51.978;5.330;2023-05-10T08:01:18;15.40;99.90
14188;DHT22;7175;51.978;5.330;2023-05-10T08:03:46;15.40;99.90
14188;DHT22;7175;51.978;5.330;2023-05-10T08:06:16;15.30;99.90
14188;DHT22;7175;51.978;5.330;2023-05-10T08:08:46;15.20;99.90
14188;DHT22;7175;51.978;5.330;2023-05-10T08:11:17;15.20;99.90
14188;DHT22;7175;51.978;5.330;2023-05-10T08:13:45;15.10;99.90
14188;DHT22;7175;51.978;5.330;2023-05-10T08:16:13;15.10;99.90
14188;DHT22;7175;51.978;5.330;2023-05-10T08:18:44;15.10;99.90
14188;DHT22;7175;51.978;5.330;2023-05-10T08:21:15;15.20;99.90
14188;DHT22;7175;51.978;5.330;2023-05-10T08:23:43;15.10;99.90
14188;DHT22;7175;51.978;5.330;2023-05-10T08:26:12;15.10;99.90
14188;DHT22;7175;51.978;5.330;2023-05-10T08:28:40;15.10;99.90
14188;DHT22;7175;51.978;5.330;2023-05-10T08:31:08;15.10;99.90
14188;DHT22;7175;51.978;5.330;2023-05-10T08:33:36;15.30;99.90
14188;DHT22;7175;51.978;5.330;2023-05-10T08:36:04;15.30;99.90
14188;DHT22;7175;51.978;5.330;2023-05-10T08:38:34;15.30;99.90
14188;DHT22;7175;51.978;5.330;2023-05-10T08:41:04;15.30;99.90
14188;DHT22;7175;51.978;5.330;2023-05-10T08:43:34;15.30;99.90
14188;DHT22;7175;51.978;5.330;2023-05-10T08:46:05;15.30;99.90
14188;DHT22;7175;51.978;5.330;2023-05-10T08:48:34;15.30;99.90
14188;DHT22;7175;51.978;5.330;2023-05-10T08:51:03;15.30;99.90
14188;DHT22;7175;51.978;5.330;2023-05-10T08:53:35;15.30;99.90
14188;DHT22;7175;51.978;5.330;2023-05-10T08:56:05;15.40;99.90
14188;DHT22;7175;51.978;5.330;2023-05-10T08:58:33;15.40;99.90
14188;DHT22;7175;51.978;5.330;2023-05-10T09:01:02;15.40;99.90
14188;DHT22;7175;51.978;5.330;2023-05-10T09:03:31;15.50;99.90
14188;DHT22;7175;51.978;5.330;2023-05-10T09:06:00;15.70;99.90
14188;DHT22;7175;51.978;5.330;2023-05-10T09:08:28;15.70;99.90
14188;DHT22;7175;51.978;5.330;2023-05-10T09:11:00;15.70;99.90
14188;DHT22;7175;51.978;5.330;2023-05-10T09:13:29;15.70;99.90
14188;DHT22;7175;51.978;5.330;2023-05-10T09:15:58;15.80;99.90
14188;DHT22;7175;51.978;5.330;2023-05-10T09:18:39;15.80;99.90
14188;DHT22;7175;51.978;5.330;2023-05-10T09:21:08;15.70;99.90
14188;DHT22;7175;51.978;5.330;2023-05-10T09:23:36;15.70;99.90
14188;DHT22;7175;51.978;5.330;2023-05-10T09:26:06;15.70;99.90
14188;DHT22;7175;51.978;5.330;2023-05-10T09:28:50;15.60;99.90
14188;DHT22;7175;51.978;5.330;2023-05-10T09:31:19;15.80;99.90
14188;DHT22;7175;51.978;5.330;2023-05-10T09:33:48;16.10;99.90
14188;DHT22;7175;51.978;5.330;2023-05-10T09:36:17;16.30;99.90
14188;DHT22;7175;51.978;5.330;2023-05-10T09:38:46;16.40;99.90
14188;DHT22;7175;51.978;5.330;2023-05-10T09:41:18;16.30;99.90
14188;DHT22;7175;51.978;5.330;2023-05-10T09:43:47;16.40;99.90
14188;DHT22;7175;51.978;5.330;2023-05-10T09:46:16;16.50;99.90
14188;DHT22;7175;51.978;5.330;2023-05-10T09:48:45;16.60;99.90
14188;DHT22;7175;51.978;5.330;2023-05-10T09:51:20;16.70;99.90
14188;DHT22;7175;51.978;5.330;2023-05-10T09:53:49;16.80;99.90
14188;DHT22;7175;51.978;5.330;2023-05-10T09:56:38;16.70;99.90
14188;DHT22;7175;51.978;5.330;2023-05-10T09:59:09;16.70;99.90
14188;DHT22;7175;51.978;5.330;2023-05-10T10:01:38;16.70;99.90
14188;DHT22;7175;51.978;5.330;2023-05-10T10:04:09;16.80;99.90
14188;DHT22;7175;51.978;5.330;2023-05-10T10:06:38;16.80;99.90
14188;DHT22;7175;51.978;5.330;2023-05-10T10:09:07;16.90;99.90
14188;DHT22;7175;51.978;5.330;2023-05-10T10:11:38;17.00;99.90
14188;DHT22;7175;51.978;5.330;2023-05-10T10:14:08;17.20;99.90
14188;DHT22;7175;51.978;5.330;2023-05-10T10:16:36;17.20;99.90
14188;DHT22;7175;51.978;5.330;2023-05-10T10:19:21;17.30;99.90
14188;DHT22;7175;51.978;5.330;2023-05-10T10:21:50;17.30;99.90
14188;DHT22;7175;51.978;5.330;2023-05-10T10:24:18;17.20;99.90
14188;DHT22;7175;51.978;5.330;2023-05-10T10:26:48;17.10;99.90
14188;DHT22;7175;51.978;5.330;2023-05-10T10:29:25;17.00;99.90
14188;DHT22;7175;51.978;5.330;2023-05-10T10:32:07;16.80;99.90
14188;DHT22;7175;51.978;5.330;2023-05-10T10:34:39;16.70;99.90
14188;DHT22;7175;51.978;5.330;2023-05-10T10:37:07;16.70;99.90
14188;DHT22;7175;51.978;5.330;2023-05-10T10:39:35;16.70;99.90
14188;DHT22;7175;51.978;5.330;2023-05-10T10:42:05;16.80;99.90
14188;DHT22;7175;51.978;5.330;2023-05-10T10:44:37;16.90;99.90
14188;DHT22;7175;51.978;5.330;2023-05-10T10:47:09;17.00;99.90
14188;DHT22;7175;51.978;5.330;2023-05-10T10:49:49;17.30;99.90
14188;DHT22;7175;51.978;5.330;2023-05-10T10:52:23;17.60;99.90
14188;DHT22;7175;51.978;5.330;2023-05-10T10:54:58;17.80;99.90
14188;DHT22;7175;51.978;5.330;2023-05-10T10:57:30;18.00;99.90
14188;DHT22;7175;51.978;5.330;2023-05-10T11:00:27;18.20;99.90
14188;DHT22;7175;51.978;5.330;2023-05-10T11:03:03;18.40;99.90
14188;DHT22;7175;51.978;5.330;2023-05-10T11:05:36;18.40;99.90
14188;DHT22;7175;51.978;5.330;2023-05-10T11:08:19;18.80;99.90
14188;DHT22;7175;51.978;5.330;2023-05-10T11:10:53;19.30;99.90
14188;DHT22;7175;51.978;5.330;2023-05-10T11:13:31;19.70;99.90
14188;DHT22;7175;51.978;5.330;2023-05-10T11:16:10;19.60;99.90
14188;DHT22;7175;51.978;5.330;2023-05-10T11:18:40;19.60;99.90
14188;DHT22;7175;51.978;5.330;2023-05-10T11:21:09;19.70;99.90
14188;DHT22;7175;51.978;5.330;2023-05-10T11:23:51;20.10;99.90
14188;DHT22;7175;51.978;5.330;2023-05-10T11:26:23;20.10;99.90
14188;DHT22;7175;51.978;5.330;2023-05-10T11:28:54;20.50;99.90
14188;DHT22;7175;51.978;5.330;2023-05-10T11:31:23;20.10;99.90
14188;DHT22;7175;51.978;5.330;2023-05-10T11:33:55;19.90;99.90
14188;DHT22;7175;51.978;5.330;2023-05-10T11:36:25;19.60;99.90
14188;DHT22;7175;51.978;5.330;2023-05-10T11:38:54;19.30;99.90
14188;DHT22;7175;51.978;5.330;2023-05-10T11:41:24;19.20;99.90
14188;DHT22;7175;51.978;5.330;2023-05-10T11:43:54;19.00;99.90
14188;DHT22;7175;51.978;5.330;2023-05-10T11:46:24;19.10;99.90
14188;DHT22;7175;51.978;5.330;2023-05-10T11:48:57;19.10;99.90
14188;DHT22;7175;51.978;5.330;2023-05-10T11:51:27;19.10;99.90
14188;DHT22;7175;51.978;5.330;2023-05-10T11:53:56;19.20;99.90
14188;DHT22;7175;51.978;5.330;2023-05-10T11:56:25;19.80;99.90
14188;DHT22;7175;51.978;5.330;2023-05-10T11:58:56;19.60;99.90
14188;DHT22;7175;51.978;5.330;2023-05-10T12:01:25;19.30;99.90
14188;DHT22;7175;51.978;5.330;2023-05-10T12:03:57;19.10;99.90
14188;DHT22;7175;51.978;5.330;2023-05-10T12:06:28;18.90;99.90
14188;DHT22;7175;51.978;5.330;2023-05-10T12:08:58;18.80;99.90
14188;DHT22;7175;51.978;5.330;2023-05-10T12:11:28;18.90;99.90
14188;DHT22;7175;51.978;5.330;2023-05-10T12:13:58;19.10;99.90
14188;DHT22;7175;51.978;5.330;2023-05-10T12:16:28;19.00;99.90
14188;DHT22;7175;51.978;5.330;2023-05-10T12:18:58;18.70;99.90
14188;DHT22;7175;51.978;5.330;2023-05-10T12:21:28;18.70;99.90
14188;DHT22;7175;51.978;5.330;2023-05-10T12:24:01;18.30;99.90
14188;DHT22;7175;51.978;5.330;2023-05-10T12:26:29;18.20;99.90
14188;DHT22;7175;51.978;5.330;2023-05-10T12:29:14;18.00;99.90
14188;DHT22;7175;51.978;5.330;2023-05-10T12:31:50;18.20;99.90
14188;DHT22;7175;51.978;5.330;2023-05-10T12:34:26;18.00;99.90
14188;DHT22;7175;51.978;5.330;2023-05-10T12:36:55;17.90;99.90
14188;DHT22;7175;51.978;5.330;2023-05-10T12:39:23;18.20;99.90
14188;DHT22;7175;51.978;5.330;2023-05-10T12:41:51;18.10;99.90
14188;DHT22;7175;51.978;5.330;2023-05-10T12:44:21;18.20;99.90
14188;DHT22;7175;51.978;5.330;2023-05-10T12:46:50;18.40;99.90
14188;DHT22;7175;51.978;5.330;2023-05-10T12:49:18;18.60;99.90
14188;DHT22;7175;51.978;5.330;2023-05-10T12:51:46;18.70;99.90
14188;DHT22;7175;51.978;5.330;2023-05-10T12:54:14;18.60;99.90
14188;DHT22;7175;51.978;5.330;2023-05-10T12:56:43;18.60;99.90
14188;DHT22;7175;51.978;5.330;2023-05-10T12:59:11;18.50;99.90
14188;DHT22;7175;51.978;5.330;2023-05-10T13:01:40;18.30;99.90
14188;DHT22;7175;51.978;5.330;2023-05-10T13:04:09;18.40;99.90
14188;DHT22;7175;51.978;5.330;2023-05-10T13:06:37;18.40;99.90
14188;DHT22;7175;51.978;5.330;2023-05-10T13:09:05;18.20;99.90
14188;DHT22;7175;51.978;5.330;2023-05-10T13:11:33;18.40;99.90
14188;DHT22;7175;51.978;5.330;2023-05-10T13:14:02;18.30;99.90
14188;DHT22;7175;51.978;5.330;2023-05-10T13:16:31;18.40;99.90
14188;DHT22;7175;51.978;5.330;2023-05-10T13:19:01;18.20;99.90
14188;DHT22;7175;51.978;5.330;2023-05-10T13:21:29;18.10;99.90
14188;DHT22;7175;51.978;5.330;2023-05-10T13:23:57;17.70;99.90
14188;DHT22;7175;51.978;5.330;2023-05-10T13:26:26;17.40;99.90
14188;DHT22;7175;51.978;5.330;2023-05-10T13:28:55;17.10;99.90
14188;DHT22;7175;51.978;5.330;2023-05-10T13:31:23;16.90;99.90
14188;DHT22;7175;51.978;5.330;2023-05-10T13:33:51;16.70;99.90
14188;DHT22;7175;51.978;5.330;2023-05-10T13:36:21;16.50;99.90
14188;DHT22;7175;51.978;5.330;2023-05-10T13:38:49;16.30;99.90
14188;DHT22;7175;51.978;5.330;2023-05-10T13:41:17;16.20;99.90
14188;DHT22;7175;51.978;5.330;2023-05-10T13:43:45;16.10;99.90
14188;DHT22;7175;51.978;5.330;2023-05-10T13:46:15;16.10;99.90
14188;DHT22;7175;51.978;5.330;2023-05-10T13:48:43;16.10;99.90
14188;DHT22;7175;51.978;5.330;2023-05-10T13:51:11;16.00;99.90
14188;DHT22;7175;51.978;5.330;2023-05-10T13:53:41;15.90;99.90
14188;DHT22;7175;51.978;5.330;2023-05-10T13:56:09;15.90;99.90
14188;DHT22;7175;51.978;5.330;2023-05-10T13:58:37;15.90;99.90
14188;DHT22;7175;51.978;5.330;2023-05-10T14:01:06;16.00;99.90
14188;DHT22;7175;51.978;5.330;2023-05-10T14:03:34;15.90;99.90
14188;DHT22;7175;51.978;5.330;2023-05-10T14:06:03;16.00;99.90
14188;DHT22;7175;51.978;5.330;2023-05-10T14:08:31;16.00;99.90
14188;DHT22;7175;51.978;5.330;2023-05-10T14:11:00;15.90;99.90
14188;DHT22;7175;51.978;5.330;2023-05-10T14:13:28;15.90;99.90
14188;DHT22;7175;51.978;5.330;2023-05-10T14:15:56;15.90;99.90
14188;DHT22;7175;51.978;5.330;2023-05-10T14:18:27;15.90;99.90
14188;DHT22;7175;51.978;5.330;2023-05-10T14:20:55;16.00;99.90
14188;DHT22;7175;51.978;5.330;2023-05-10T14:23:23;16.00;99.90
14188;DHT22;7175;51.978;5.330;2023-05-10T14:25:52;16.10;99.90
14188;DHT22;7175;51.978;5.330;2023-05-10T14:28:22;16.20;99.90
14188;DHT22;7175;51.978;5.330;2023-05-10T14:30:51;16.30;99.90
14188;DHT22;7175;51.978;5.330;2023-05-10T14:33:19;16.20;99.90
14188;DHT22;7175;51.978;5.330;2023-05-10T14:35:47;16.30;99.90
14188;DHT22;7175;51.978;5.330;2023-05-10T14:38:16;16.50;99.90
14188;DHT22;7175;51.978;5.330;2023-05-10T14:40:44;16.60;99.90
14188;DHT22;7175;51.978;5.330;2023-05-10T14:43:12;16.80;99.90
14188;DHT22;7175;51.978;5.330;2023-05-10T14:45:41;16.90;99.90
14188;DHT22;7175;51.978;5.330;2023-05-10T14:48:10;17.00;99.90
14188;DHT22;7175;51.978;5.330;2023-05-10T14:50:42;16.90;99.90
14188;DHT22;7175;51.978;5.330;2023-05-10T14:53:10;17.00;99.90
14188;DHT22;7175;51.978;5.330;2023-05-10T14:55:38;17.20;99.90
14188;DHT22;7175;51.978;5.330;2023-05-10T14:58:06;17.00;99.90
14188;DHT22;7175;51.978;5.330;2023-05-10T15:00:34;17.00;99.90
14188;DHT22;7175;51.978;5.330;2023-05-10T15:03:04;17.10;99.90
14188;DHT22;7175;51.978;5.330;2023-05-10T15:05:34;17.30;99.90
14188;DHT22;7175;51.978;5.330;2023-05-10T15:08:04;17.40;99.90
14188;DHT22;7175;51.978;5.330;2023-05-10T15:10:32;17.60;99.90
14188;DHT22;7175;51.978;5.330;2023-05-10T15:13:01;17.60;99.90
14188;DHT22;7175;51.978;5.330;2023-05-10T15:15:29;17.50;99.90
14188;DHT22;7175;51.978;5.330;2023-05-10T15:17:57;17.40;99.90
14188;DHT22;7175;51.978;5.330;2023-05-10T15:20:27;17.40;99.90
14188;DHT22;7175;51.978;5.330;2023-05-10T15:22:55;17.40;99.90
14188;DHT22;7175;51.978;5.330;2023-05-10T15:25:23;17.50;99.90
14188;DHT22;7175;51.978;5.330;2023-05-10T15:27:52;17.40;99.90
14188;DHT22;7175;51.978;5.330;2023-05-10T15:30:21;17.30;99.90
14188;DHT22;7175;51.978;5.330;2023-05-10T15:32:49;17.30;99.90
14188;DHT22;7175;51.978;5.330;2023-05-10T15:35:17;17.30;99.90
14188;DHT22;7175;51.978;5.330;2023-05-10T15:37:48;17.20;99.90
14188;DHT22;7175;51.978;5.330;2023-05-10T15:40:16;17.20;99.90
14188;DHT22;7175;51.978;5.330;2023-05-10T15:42:44;17.00;99.90
14188;DHT22;7175;51.978;5.330;2023-05-10T15:45:12;16.90;99.90
14188;DHT22;7175;51.978;5.330;2023-05-10T15:47:40;16.90;99.90
14188;DHT22;7175;51.978;5.330;2023-05-10T15:50:09;16.80;99.90
14188;DHT22;7175;51.978;5.330;2023-05-10T15:52:38;16.80;99.90
14188;DHT22;7175;51.978;5.330;2023-05-10T15:55:08;16.70;99.90
14188;DHT22;7175;51.978;5.330;2023-05-10T15:57:39;16.80;99.90
14188;DHT22;7175;51.978;5.330;2023-05-10T16:00:09;16.80;99.90
14188;DHT22;7175;51.978;5.330;2023-05-10T16:02:38;16.90;99.90